createdAt,value
2023-06-26T00:02:07.475Z,48.50
2023-06-26T00:04:33.416Z,48.45
2023-06-26T00:06:59.273Z,49.03
2023-06-26T00:09:25.614Z,48.26
2023-06-26T00:11:52.728Z,47.66
2023-06-26T00:14:21.115Z,49.60
2023-06-26T00:16:49.859Z,47.97
2023-06-26T00:19:16.238Z,48.21
2023-06-26T00:21:46.961Z,47.55
2023-06-26T00:24:13.893Z,47.44
2023-06-26T00:26:39.748Z,47.46
2023-06-26T00:29:06.307Z,47.48
2023-06-26T00:31:32.429Z,47.38
2023-06-26T00:33:58.371Z,47.28
2023-06-26T00:36:26.811Z,47.46
2023-06-26T00:38:56.268Z,47.07
2023-06-26T00:41:22.075Z,48.00
2023-06-26T00:43:47.943Z,46.88
2023-06-26T00:46:14.812Z,47.43
2023-06-26T00:48:45.714Z,47.22
2023-06-26T00:51:12.651Z,48.96
2023-06-26T00:53:38.915Z,47.72
2023-06-26T00:56:06.012Z,47.58
2023-06-26T00:58:31.898Z,48.09
2023-06-26T01:00:58.145Z,47.49
2023-06-26T01:03:25.627Z,48.39
2023-06-26T01:06:01.853Z,47.84
2023-06-26T01:08:28.148Z,48.27
2023-06-26T01:10:54.352Z,48.53
2023-06-26T01:13:20.708Z,48.30
2023-06-26T01:15:47.818Z,48.55
2023-06-26T01:18:15.725Z,47.78
2023-06-26T01:20:42.104Z,48.56
2023-06-26T01:23:26.965Z,48.86
2023-06-26T01:26:21.359Z,48.37
2023-06-26T01:28:49.166Z,49.06
2023-06-26T01:31:15.570Z,48.85
2023-06-26T01:33:42.222Z,48.80
2023-06-26T01:36:08.402Z,48.91
2023-06-26T01:38:37.386Z,49.28
2023-06-26T01:41:05.137Z,48.69
2023-06-26T01:43:49.179Z,48.96
2023-06-26T01:46:22.186Z,49.34
2023-06-26T01:48:59.536Z,48.96
2023-06-26T01:51:30.897Z,49.45
2023-06-26T01:53:59.195Z,49.14
2023-06-26T01:56:25.833Z,49.75
2023-06-26T01:58:55.301Z,49.75
2023-06-26T02:01:22.087Z,49.90
2023-06-26T02:03:49.082Z,50.45
2023-06-26T02:06:15.362Z,50.79
2023-06-26T02:08:41.395Z,50.88
2023-06-26T02:11:07.306Z,50.42
2023-06-26T02:13:33.166Z,50.75
2023-06-26T02:15:59.043Z,51.27
2023-06-26T02:18:24.826Z,51.15
2023-06-26T02:20:50.826Z,51.48
2023-06-26T02:23:16.647Z,51.94
2023-06-26T02:25:42.489Z,52.12
2023-06-26T02:28:08.575Z,52.08
2023-06-26T02:30:34.435Z,51.98
2023-06-26T02:33:00.314Z,52.32
2023-06-26T02:35:26.214Z,51.90
2023-06-26T02:37:52.064Z,52.61
2023-06-26T02:40:17.905Z,52.26
2023-06-26T02:42:43.743Z,52.26
2023-06-26T02:45:10.113Z,52.44
2023-06-26T02:47:39.752Z,52.17
2023-06-26T02:50:07.216Z,52.92
2023-06-26T02:52:33.035Z,52.87
2023-06-26T02:54:58.911Z,53.04
2023-06-26T02:57:24.743Z,53.35
2023-06-26T02:59:50.716Z,53.19
2023-06-26T03:02:16.630Z,53.15
2023-06-26T03:04:43.453Z,53.44
2023-06-26T03:07:09.642Z,53.25
2023-06-26T03:09:35.613Z,53.70
2023-06-26T03:12:01.518Z,53.12
2023-06-26T03:14:27.379Z,53.56
2023-06-26T03:16:56.332Z,53.92
2023-06-26T03:19:22.186Z,54.11
2023-06-26T03:21:48.054Z,54.34
2023-06-26T03:24:13.848Z,54.49
2023-06-26T03:26:39.744Z,54.84
2023-06-26T03:29:05.556Z,54.92
2023-06-26T03:31:31.484Z,54.85
2023-06-26T03:33:57.406Z,55.31
2023-06-26T03:36:23.221Z,55.14
2023-06-26T03:38:49.062Z,54.88
2023-06-26T03:41:14.980Z,54.25
2023-06-26T03:43:40.824Z,54.66
2023-06-26T03:46:06.625Z,54.63
2023-06-26T03:48:32.657Z,55.15
2023-06-26T03:50:58.545Z,54.92
2023-06-26T03:53:24.804Z,55.22
2023-06-26T03:55:50.611Z,55.45
2023-06-26T03:58:16.433Z,55.43
2023-06-26T04:00:42.400Z,56.00
2023-06-26T04:03:09.480Z,55.99
2023-06-26T04:05:36.331Z,55.94
2023-06-26T04:08:02.186Z,55.65
2023-06-26T04:10:28.325Z,55.89
2023-06-26T04:12:54.260Z,56.77
2023-06-26T04:15:20.348Z,56.94
2023-06-26T04:17:46.235Z,57.74
2023-06-26T04:20:12.203Z,57.87
2023-06-26T04:22:38.075Z,58.04
2023-06-26T04:25:04.557Z,58.26
2023-06-26T04:27:35.738Z,58.80
2023-06-26T04:30:02.792Z,59.80
2023-06-26T04:32:28.604Z,59.26
2023-06-26T04:34:54.422Z,60.14
2023-06-26T04:37:20.688Z,60.01
2023-06-26T04:39:46.587Z,60.66
2023-06-26T04:42:12.526Z,61.68
2023-06-26T04:44:38.851Z,63.12
2023-06-26T04:47:04.923Z,66.01
2023-06-26T04:49:30.730Z,67.23
2023-06-26T04:51:57.029Z,69.25
2023-06-26T04:54:23.616Z,70.16
2023-06-26T04:56:49.450Z,72.42
2023-06-26T04:59:15.355Z,74.73
2023-06-26T05:01:41.422Z,74.56
2023-06-26T05:04:07.605Z,76.47
2023-06-26T05:06:33.453Z,76.15
2023-06-26T05:08:59.281Z,77.41
2023-06-26T05:11:25.822Z,78.24
2023-06-26T05:13:51.742Z,78.50
2023-06-26T05:16:17.569Z,78.26
2023-06-26T05:18:43.371Z,79.66
2023-06-26T05:21:09.575Z,80.86
2023-06-26T05:23:35.984Z,81.66
2023-06-26T05:26:03.270Z,83.12
2023-06-26T05:28:31.398Z,85.56
2023-06-26T05:30:58.625Z,86.40
2023-06-26T05:33:26.883Z,88.60
2023-06-26T05:35:53.652Z,89.40
2023-06-26T05:38:20.381Z,90.17
2023-06-26T05:40:46.805Z,88.82
2023-06-26T05:43:13.082Z,89.28
2023-06-26T05:45:38.952Z,88.59
2023-06-26T05:48:05.158Z,89.52
2023-06-26T05:50:31.510Z,89.49
2023-06-26T05:52:57.703Z,91.11
2023-06-26T05:55:24.064Z,92.07
2023-06-26T05:57:51.398Z,91.47
2023-06-26T06:00:17.753Z,89.97
2023-06-26T06:02:43.797Z,90.41
2023-06-26T06:05:10.170Z,91.74
2023-06-26T06:07:36.700Z,92.51
2023-06-26T06:10:03.819Z,93.52
2023-06-26T06:12:30.007Z,93.06
2023-06-26T06:14:56.720Z,93.07
2023-06-26T06:17:23.080Z,94.55
2023-06-26T06:19:49.746Z,94.86
2023-06-26T06:22:16.886Z,95.52
2023-06-26T06:24:43.247Z,96.38
2023-06-26T06:27:09.061Z,94.98
2023-06-26T06:29:34.882Z,95.66
2023-06-26T06:32:01.082Z,94.64
2023-06-26T06:34:26.978Z,95.39
2023-06-26T06:36:52.905Z,95.88
2023-06-26T06:39:18.770Z,96.56
2023-06-26T06:41:44.632Z,98.39
2023-06-26T06:44:10.431Z,98.00
2023-06-26T06:46:36.244Z,97.26
2023-06-26T06:49:02.606Z,98.19
2023-06-26T06:51:28.421Z,98.70
2023-06-26T06:53:54.302Z,98.68
2023-06-26T06:56:20.113Z,97.62
2023-06-26T06:58:47.315Z,94.96
2023-06-26T07:01:13.913Z,94.84
2023-06-26T07:03:40.362Z,95.82
2023-06-26T07:06:06.370Z,96.47
2023-06-26T07:08:32.409Z,95.33
2023-06-26T07:10:58.261Z,94.65
2023-06-26T07:13:24.288Z,94.60
2023-06-26T07:15:50.275Z,94.97
2023-06-26T07:18:16.647Z,94.64
2023-06-26T07:20:42.538Z,94.71
2023-06-26T07:23:08.883Z,93.99
2023-06-26T07:25:35.110Z,94.13
2023-06-26T07:28:01.186Z,94.71
2023-06-26T07:30:27.027Z,95.91
2023-06-26T07:32:52.938Z,94.33
2023-06-26T07:35:18.804Z,96.17
2023-06-26T07:37:44.924Z,97.93
2023-06-26T07:40:11.316Z,100.00
2023-06-26T07:42:37.302Z,100.00
2023-06-26T07:45:10.248Z,100.00
2023-06-26T07:47:37.296Z,100.00
2023-06-26T07:50:03.757Z,100.00
2023-06-26T07:52:30.549Z,100.00
2023-06-26T07:54:57.107Z,100.00
2023-06-26T07:57:23.187Z,100.00
2023-06-26T07:59:49.074Z,100.00
2023-06-26T08:02:14.967Z,100.00
2023-06-26T08:04:40.891Z,100.00
2023-06-26T08:07:06.953Z,99.61
2023-06-26T08:09:33.045Z,99.82
2023-06-26T08:11:59.324Z,99.90
2023-06-26T08:14:25.557Z,100.00
2023-06-26T08:16:51.749Z,100.00
2023-06-26T08:19:17.678Z,98.90
2023-06-26T08:21:47.486Z,99.78
2023-06-26T08:24:13.802Z,100.00
2023-06-26T08:26:40.154Z,99.52
2023-06-26T08:29:11.543Z,100.00
2023-06-26T08:31:39.867Z,100.00
2023-06-26T08:34:06.466Z,99.90
2023-06-26T08:36:32.517Z,97.82
2023-06-26T08:38:58.672Z,96.11
2023-06-26T08:41:25.144Z,96.12
2023-06-26T08:43:52.920Z,94.78
2023-06-26T08:46:19.956Z,94.61
2023-06-26T08:48:56.122Z,96.38
2023-06-26T08:51:26.102Z,96.20
2023-06-26T08:54:02.636Z,93.45
2023-06-26T08:56:35.836Z,94.46
2023-06-26T08:59:01.886Z,94.91
2023-06-26T09:01:28.438Z,94.25
2023-06-26T09:03:54.526Z,93.26
2023-06-26T09:06:20.957Z,93.32
2023-06-26T09:08:47.133Z,90.08
2023-06-26T09:11:13.184Z,89.06
2023-06-26T09:13:40.009Z,89.70
2023-06-26T09:16:09.583Z,90.06
2023-06-26T09:18:35.843Z,91.35
2023-06-26T09:21:08.564Z,90.53
2023-06-26T09:23:35.852Z,89.18
2023-06-26T09:26:06.001Z,86.88
2023-06-26T09:28:35.808Z,88.15
2023-06-26T09:31:08.732Z,90.78
2023-06-26T09:33:36.972Z,90.95
2023-06-26T09:36:10.270Z,90.01
2023-06-26T09:38:36.679Z,85.19
2023-06-26T09:41:04.215Z,86.35
2023-06-26T09:43:31.493Z,86.55
2023-06-26T09:45:57.709Z,85.86
2023-06-26T09:48:23.600Z,86.49
2023-06-26T09:51:05.532Z,85.74
2023-06-26T09:53:36.833Z,83.25
2023-06-26T09:56:06.901Z,80.23
2023-06-26T09:58:33.784Z,78.59
2023-06-26T10:00:59.721Z,81.01
2023-06-26T10:03:25.699Z,82.49
2023-06-26T10:05:53.187Z,83.06
2023-06-26T10:08:19.397Z,83.14
2023-06-26T10:10:48.289Z,83.77
2023-06-26T10:13:22.965Z,84.74
2023-06-26T10:15:51.473Z,84.17
2023-06-26T10:18:18.917Z,84.19
2023-06-26T10:20:51.364Z,82.75
2023-06-26T10:23:22.300Z,81.58
2023-06-26T10:25:52.624Z,79.24
2023-06-26T10:28:21.705Z,78.63
2023-06-26T10:30:49.334Z,77.28
2023-06-26T10:33:15.544Z,72.77
2023-06-26T10:35:44.003Z,71.09
2023-06-26T10:38:09.844Z,66.77
2023-06-26T10:40:47.150Z,68.24
2023-06-26T10:43:14.430Z,69.21
2023-06-26T10:45:45.352Z,69.24
2023-06-26T10:48:14.563Z,69.74
2023-06-26T10:50:40.877Z,72.98
2023-06-26T10:53:21.109Z,72.61
2023-06-26T10:55:58.290Z,72.31
2023-06-26T10:58:34.917Z,71.95
2023-06-26T11:01:16.087Z,70.14
2023-06-26T11:03:45.209Z,65.90
2023-06-26T11:06:13.220Z,65.93
2023-06-26T11:08:47.382Z,65.20
2023-06-26T11:11:13.393Z,62.82
2023-06-26T11:13:40.765Z,55.90
2023-06-26T11:16:06.915Z,53.97
2023-06-26T11:18:33.092Z,52.59
2023-06-26T11:21:06.741Z,53.13
2023-06-26T11:23:34.768Z,52.07
2023-06-26T11:26:21.995Z,52.99
2023-06-26T11:28:52.642Z,51.63
2023-06-26T11:31:32.977Z,51.51
2023-06-26T11:34:04.052Z,52.22
2023-06-26T11:36:31.009Z,53.30
2023-06-26T11:38:58.758Z,49.60
2023-06-26T11:41:27.342Z,53.11
2023-06-26T11:43:53.517Z,54.34
2023-06-26T11:46:21.217Z,49.55
2023-06-26T11:48:47.760Z,49.01
2023-06-26T11:51:17.378Z,48.18
2023-06-26T11:53:45.096Z,44.83
2023-06-26T11:56:15.570Z,46.17
2023-06-26T11:59:03.338Z,45.88
2023-06-26T12:01:35.066Z,47.02
2023-06-26T12:04:03.843Z,49.84
2023-06-26T12:06:32.306Z,51.91
2023-06-26T12:09:05.333Z,49.85
2023-06-26T12:11:32.379Z,46.30
2023-06-26T12:13:59.410Z,49.05
2023-06-26T12:16:25.965Z,49.78
2023-06-26T12:18:58.160Z,47.98
2023-06-26T12:21:42.412Z,46.49
2023-06-26T12:24:10.961Z,46.27
2023-06-26T12:26:37.133Z,48.78
2023-06-26T12:29:03.573Z,49.63
2023-06-26T12:31:29.759Z,49.84
2023-06-26T12:33:55.774Z,46.84
2023-06-26T12:36:21.653Z,45.68
2023-06-26T12:38:49.397Z,47.59
2023-06-26T12:41:16.252Z,47.33
2023-06-26T12:43:42.905Z,47.89
2023-06-26T12:46:09.281Z,50.37
2023-06-26T12:48:46.855Z,47.96
2023-06-26T12:51:16.876Z,47.40
2023-06-26T12:53:43.312Z,49.19
2023-06-26T12:56:10.126Z,50.99
2023-06-26T12:58:37.331Z,52.95
2023-06-26T13:01:04.670Z,54.59
2023-06-26T13:03:31.302Z,55.47
2023-06-26T13:05:57.337Z,54.81
2023-06-26T13:08:23.368Z,54.71
2023-06-26T13:10:49.411Z,51.78
2023-06-26T13:13:15.375Z,50.36
2023-06-26T13:15:41.327Z,49.60
2023-06-26T13:18:07.197Z,44.95
2023-06-26T13:20:33.143Z,43.03
2023-06-26T13:22:58.984Z,41.80
2023-06-26T13:25:24.908Z,41.34
2023-06-26T13:27:50.733Z,39.61
2023-06-26T13:30:18.369Z,39.57
2023-06-26T13:32:44.664Z,41.52
2023-06-26T13:35:10.626Z,43.68
2023-06-26T13:37:37.092Z,44.10
2023-06-26T13:40:03.512Z,43.50
2023-06-26T13:42:29.861Z,44.40
2023-06-26T13:45:04.221Z,43.39
2023-06-26T13:47:34.992Z,42.75
2023-06-26T13:50:01.054Z,42.86
2023-06-26T13:52:26.975Z,41.40
2023-06-26T13:54:52.892Z,42.04
2023-06-26T13:57:22.422Z,41.10
2023-06-26T13:59:48.749Z,41.41
2023-06-26T14:02:14.909Z,41.45
2023-06-26T14:04:41.258Z,41.93
2023-06-26T14:07:07.731Z,42.00
2023-06-26T14:09:33.607Z,41.57
2023-06-26T14:11:59.471Z,41.73
2023-06-26T14:14:25.488Z,41.15
2023-06-26T14:16:51.466Z,39.92
2023-06-26T14:19:19.956Z,40.44
2023-06-26T14:21:45.943Z,39.68
2023-06-26T14:24:11.794Z,39.66
2023-06-26T14:26:39.149Z,37.95
2023-06-26T14:29:04.945Z,37.98
2023-06-26T14:31:31.379Z,37.64
2023-06-26T14:33:59.335Z,36.19
2023-06-26T14:36:25.647Z,36.50
2023-06-26T14:38:51.517Z,36.94
2023-06-26T14:41:17.741Z,38.37
2023-06-26T14:43:45.896Z,39.22
2023-06-26T14:46:13.012Z,39.05
2023-06-26T14:48:39.552Z,39.46
2023-06-26T14:51:05.416Z,38.93
2023-06-26T14:53:31.410Z,38.91
2023-06-26T14:55:57.358Z,38.18
2023-06-26T14:58:23.418Z,38.57
2023-06-26T15:00:49.285Z,38.87
2023-06-26T15:03:15.257Z,39.83
2023-06-26T15:05:41.129Z,39.24
2023-06-26T15:08:06.996Z,38.22
2023-06-26T15:10:34.236Z,39.27
2023-06-26T15:13:00.316Z,38.88
2023-06-26T15:15:26.299Z,39.35
2023-06-26T15:17:52.305Z,39.60
2023-06-26T15:20:18.142Z,40.27
2023-06-26T15:22:44.067Z,38.82
2023-06-26T15:25:11.071Z,38.33
2023-06-26T15:27:36.925Z,38.24
2023-06-26T15:30:03.407Z,38.08
2023-06-26T15:32:29.356Z,38.36
2023-06-26T15:34:55.268Z,38.88
2023-06-26T15:37:21.149Z,39.31
2023-06-26T15:39:47.001Z,39.45
2023-06-26T15:42:12.862Z,40.03
2023-06-26T15:44:38.662Z,38.17
2023-06-26T15:47:04.937Z,38.89
2023-06-26T15:49:31.570Z,37.23
2023-06-26T15:51:57.462Z,38.01
2023-06-26T15:54:23.332Z,38.33
2023-06-26T15:56:49.206Z,38.73
2023-06-26T15:59:18.863Z,39.07
2023-06-26T16:01:46.217Z,39.31
2023-06-26T16:04:12.858Z,38.35
2023-06-26T16:06:38.839Z,38.36
2023-06-26T16:09:04.758Z,38.29
2023-06-26T16:11:30.652Z,38.89
2023-06-26T16:13:58.289Z,39.71
2023-06-26T16:16:24.168Z,39.46
2023-06-26T16:18:50.127Z,39.76
2023-06-26T16:21:16.443Z,40.08
2023-06-26T16:23:42.314Z,39.76
2023-06-26T16:26:08.339Z,39.73
2023-06-26T16:28:34.231Z,39.66
2023-06-26T16:31:00.227Z,39.18
2023-06-26T16:33:26.134Z,39.70
2023-06-26T16:35:52.102Z,39.73
2023-06-26T16:38:18.012Z,39.53
2023-06-26T16:40:43.866Z,39.53
2023-06-26T16:43:10.127Z,38.46
2023-06-26T16:45:35.927Z,38.54
2023-06-26T16:48:01.853Z,37.68
2023-06-26T16:50:27.921Z,37.77
2023-06-26T16:52:53.771Z,37.94
2023-06-26T16:55:19.672Z,38.76
2023-06-26T16:57:45.569Z,39.30
2023-06-26T17:00:11.894Z,39.35
2023-06-26T17:02:38.233Z,40.46
2023-06-26T17:05:04.463Z,40.89
2023-06-26T17:07:30.435Z,41.56
2023-06-26T17:09:56.708Z,41.65
2023-06-26T17:12:22.997Z,43.00
2023-06-26T17:14:48.894Z,43.28
2023-06-26T17:17:17.725Z,44.01
2023-06-26T17:19:44.913Z,44.06
2023-06-26T17:22:10.808Z,44.83
2023-06-26T17:24:36.677Z,44.04
2023-06-26T17:27:14.588Z,45.14
2023-06-26T17:29:41.448Z,44.32
2023-06-26T17:32:08.292Z,44.24
2023-06-26T17:34:35.824Z,46.62
2023-06-26T17:37:04.499Z,44.71
2023-06-26T17:39:30.987Z,44.68
2023-06-26T17:41:56.920Z,44.74
2023-06-26T17:44:27.794Z,45.60
2023-06-26T17:46:54.378Z,45.68
2023-06-26T17:49:22.495Z,47.55
2023-06-26T17:51:49.002Z,45.36
2023-06-26T17:54:15.543Z,45.75
2023-06-26T17:56:43.258Z,45.75
2023-06-26T17:59:09.271Z,46.32
2023-06-26T18:01:35.204Z,46.84
2023-06-26T18:04:01.199Z,47.00
2023-06-26T18:06:27.193Z,47.04
2023-06-26T18:08:54.181Z,47.32
2023-06-26T18:11:20.098Z,47.00
2023-06-26T18:13:46.112Z,46.89
2023-06-26T18:16:12.115Z,46.95
2023-06-26T18:18:41.370Z,47.13
2023-06-26T18:21:07.565Z,48.48
2023-06-26T18:23:33.866Z,47.26
2023-06-26T18:26:00.800Z,47.79
2023-06-26T18:28:31.647Z,48.28
2023-06-26T18:30:57.468Z,49.07
2023-06-26T18:33:25.950Z,49.50
2023-06-26T18:35:51.811Z,50.17
2023-06-26T18:38:17.719Z,49.77
2023-06-26T18:40:43.599Z,49.83
2023-06-26T18:43:09.545Z,49.92
2023-06-26T18:45:35.615Z,49.14
2023-06-26T18:48:01.746Z,49.38
2023-06-26T18:50:28.818Z,49.35
2023-06-26T18:52:55.016Z,47.60
2023-06-26T18:55:21.177Z,47.91
2023-06-26T18:57:48.264Z,48.18
2023-06-26T19:00:16.020Z,47.44
2023-06-26T19:02:42.060Z,46.94
2023-06-26T19:05:08.401Z,47.35
2023-06-26T19:07:34.696Z,47.13
2023-06-26T19:10:00.567Z,47.26
2023-06-26T19:12:26.523Z,46.57
2023-06-26T19:14:52.488Z,46.56
2023-06-26T19:17:18.585Z,47.12
2023-06-26T19:19:44.761Z,47.00
2023-06-26T19:22:10.729Z,48.38
2023-06-26T19:24:36.610Z,49.27
2023-06-26T19:27:02.683Z,49.17
2023-06-26T19:29:28.589Z,49.02
2023-06-26T19:31:55.363Z,49.69
2023-06-26T19:34:21.379Z,49.37
2023-06-26T19:36:47.263Z,50.36
2023-06-26T19:39:13.318Z,50.92
2023-06-26T19:41:39.222Z,51.39
2023-06-26T19:44:05.015Z,51.61
2023-06-26T19:46:30.863Z,51.34
2023-06-26T19:48:57.445Z,52.37
2023-06-26T19:51:23.332Z,53.01
2023-06-26T19:53:52.149Z,53.26
2023-06-26T19:56:18.275Z,53.16
2023-06-26T19:58:44.067Z,53.47
2023-06-26T20:01:09.988Z,53.13
2023-06-26T20:03:36.150Z,53.56
2023-06-26T20:06:02.037Z,53.91
2023-06-26T20:08:27.938Z,54.66
2023-06-26T20:10:53.833Z,55.19
2023-06-26T20:13:20.054Z,55.31
2023-06-26T20:15:45.945Z,56.11
2023-06-26T20:18:12.186Z,56.13
2023-06-26T20:20:38.093Z,55.74
2023-06-26T20:23:04.064Z,56.10
2023-06-26T20:25:30.594Z,56.59
2023-06-26T20:27:56.488Z,56.49
2023-06-26T20:30:22.543Z,56.75
2023-06-26T20:32:48.482Z,57.15
2023-06-26T20:35:14.316Z,57.53
2023-06-26T20:37:40.583Z,57.84
2023-06-26T20:40:07.189Z,57.66
2023-06-26T20:42:33.316Z,57.88
2023-06-26T20:44:59.523Z,57.84
2023-06-26T20:47:41.487Z,57.96
2023-06-26T20:50:09.914Z,57.91
2023-06-26T20:52:39.245Z,58.18
2023-06-26T20:55:05.798Z,58.61
2023-06-26T20:57:31.631Z,58.51
2023-06-26T20:59:57.963Z,58.59
2023-06-26T21:02:23.993Z,59.03
2023-06-26T21:04:49.913Z,59.09
2023-06-26T21:07:15.915Z,59.16
2023-06-26T21:09:41.939Z,58.98
2023-06-26T21:12:08.398Z,58.89
2023-06-26T21:14:34.272Z,59.00
2023-06-26T21:17:00.628Z,58.55
2023-06-26T21:19:26.576Z,59.17
2023-06-26T21:21:52.439Z,59.35
2023-06-26T21:24:18.545Z,59.34
2023-06-26T21:26:44.472Z,59.84
2023-06-26T21:29:10.587Z,59.90
2023-06-26T21:31:36.649Z,59.49
2023-06-26T21:34:02.616Z,60.02
2023-06-26T21:36:28.483Z,60.84
2023-06-26T21:38:54.377Z,60.98
2023-06-26T21:41:20.302Z,60.69
2023-06-26T21:43:46.097Z,61.08
2023-06-26T21:46:11.972Z,61.23
2023-06-26T21:48:39.040Z,61.81
2023-06-26T21:51:05.304Z,61.86
2023-06-26T21:53:31.192Z,62.04
2023-06-26T21:55:57.152Z,61.88
2023-06-26T21:58:23.015Z,62.35
2023-06-26T22:00:48.850Z,62.21
2023-06-26T22:03:14.700Z,62.14
2023-06-26T22:05:40.914Z,62.97
2023-06-26T22:08:07.799Z,63.06
2023-06-26T22:10:34.170Z,63.14
2023-06-26T22:13:00.437Z,63.08
2023-06-26T22:15:26.407Z,63.36
2023-06-26T22:17:54.269Z,64.25
2023-06-26T22:20:20.982Z,64.38
2023-06-26T22:22:47.919Z,64.28
2023-06-26T22:25:14.541Z,64.39
2023-06-26T22:27:48.546Z,65.46
2023-06-26T22:30:15.663Z,65.29
2023-06-26T22:32:42.553Z,65.39
2023-06-26T22:35:08.885Z,65.87
2023-06-26T22:37:34.959Z,65.89
2023-06-26T22:40:00.840Z,66.06
2023-06-26T22:42:27.055Z,66.31
2023-06-26T22:44:52.906Z,66.20
2023-06-26T22:47:19.347Z,66.73
2023-06-26T22:49:48.874Z,66.36
2023-06-26T22:52:15.957Z,67.17
2023-06-26T22:54:41.817Z,66.78
2023-06-26T22:57:07.763Z,67.37
2023-06-26T22:59:33.581Z,68.14
2023-06-26T23:01:59.476Z,68.62
2023-06-26T23:04:25.339Z,68.12
2023-06-26T23:06:57.331Z,68.18
2023-06-26T23:09:23.739Z,68.59
2023-06-26T23:11:49.851Z,68.89
2023-06-26T23:14:15.798Z,69.10
2023-06-26T23:16:42.939Z,69.26
2023-06-26T23:19:09.709Z,70.28
2023-06-26T23:21:36.325Z,70.70
2023-06-26T23:24:03.112Z,71.11
2023-06-26T23:26:31.770Z,70.40
2023-06-26T23:28:58.339Z,71.29
2023-06-26T23:31:25.796Z,70.95
2023-06-26T23:33:52.562Z,71.40
2023-06-26T23:36:18.601Z,71.53
2023-06-26T23:38:44.619Z,72.70
2023-06-26T23:41:11.162Z,71.77
2023-06-26T23:43:38.014Z,72.03
2023-06-26T23:46:07.226Z,72.67
2023-06-26T23:48:33.246Z,72.72
2023-06-26T23:50:59.046Z,73.53
2023-06-26T23:53:25.017Z,73.85
2023-06-26T23:55:50.892Z,73.52
2023-06-26T23:58:17.689Z,73.80
